Abadan Airport

Current Flights

Departures
Arrivals
Info
Name: Abadan Airport
Identifier:  ABD/OIAA
Local Time:  20. May 06:50
City
Abadan
  Iran

Flights per Day
11 flights
Distance: 693km (430mi)
Punctuality
88% (1 flights per day delayed)
Delay Average: 59 minutes
Current Weather
 27 C (Humidity: 78%)
  8kt (14km/h / 9mph) from 60°
  Broken clouds at 4,000 feet (1,219 meter)
  9km (6 mi.)
 METAR OIAA 200100Z 06008KT 9999 BKN040 27/23 Q1007

Current Delays

Departures
N/A
Arrivals
N/A

Destinations

Top Destinations
Airport Flights
per week
Seats
per week
  Tehran (THR) 28 1,715 4 245
  Mashhad (MHD) 7 1,274 1 182
  Shiraz (SYZ) 7 826 1 118
  Isfahan (IFN) <1 140 0 20
  Bandar Abbas (BND) <1 98 0 14

Airlines & Planes

Top Airlines
Airline Flights
per Day
Seats
per Day
  Iran Aseman Airlines 1 168
  Iran Air Tours 1 -
  Qeshm Airlines 1 120
  Iran Air 1 76
  Kish Air 1 22
  Mahan Airlines <1 140
  Zagros Air <1 12
Zagros Airlines <1 18
  AirAsia <1 11
Top Plane Types
Manufacturer Model Flights Seats
Fokker 100 2.0/day 220/day 220.03333333333333
McDonnell-Douglas MD-82 1.7/day 11/day 11.8
McDonnell-Douglas MD-83 1.0/day 21/day 21.466666666666665
Airbus A320 0.9/day 107/day 107.73333333333333
ATR 76-600 0.7/day 36/day 36.266666666666666
Airbus A300 0.5/day 140/day 140
British-Aerospace Avro RJ-100 0.4/day 34/day 34.46666666666667
Boeing B737-400 0.2/day 9/day 9.6